Terminal Aerodrome Forecast
Issued by NWS

Home | Current Version | Previous Version | Text Only | Print | Product List | Glossary On
Versions: 1 2 3 4 5 6 7 8 9 10 11 12
311
FTUS42 TJSJ 291725
TAFISX
TAF
TISX 291725Z 2918/3018 13012KT P6SM VCSH SCT022 BKN040
     FM292300 10007KT P6SM FEW025 SCT050
     FM300300 08005KT P6SM FEW025 FEW050
     FM301400 11012KT P6SM SCT030=

USA.gov is the U.S. government's official web portal to all federal, state and local government web resources and services.